Time,TemperatureF,DewpointF,PressureIn,WindDirection,WindDirectionDegrees,WindSpeedMPH,WindSpeedGustMPH,Humidity,HourlyPrecipIn,Conditions,Clouds,dailyrainin,SoftwareType,DateUTC
2013-02-03 00:01:00,31.1,30.6,30.24,North,0,0.0,0.0,98,0.00,,---,0.00,VWS V14.01,2013-02-03 08:01:00,
2013-02-03 00:06:00,31.1,30.6,30.24,East,90,1.6,1.6,98,0.00,,---,0.00,VWS V14.01,2013-02-03 08:06:00,
2013-02-03 00:11:00,31.1,30.6,30.24,SE,135,3.4,3.4,98,0.00,,---,0.00,VWS V14.01,2013-02-03 08:11:00,
2013-02-03 00:16:00,31.1,30.6,30.24,East,90,3.1,3.1,98,0.00,,---,0.00,VWS V14.01,2013-02-03 08:16:00,
2013-02-03 00:21:00,30.9,30.4,30.24,East,90,1.1,1.1,98,0.00,,---,0.00,VWS V14.01,2013-02-03 08:21:00,
2013-02-03 00:26:00,30.9,30.4,30.24,NNW,338,1.3,1.3,98,0.00,,---,0.00,VWS V14.01,2013-02-03 08:26:00,
2013-02-03 00:31:00,30.9,30.4,30.21,SE,135,2.5,2.5,98,0.00,,---,0.00,VWS V14.01,2013-02-03 08:31:00,
2013-02-03 00:36:00,30.9,30.4,30.21,ENE,68,0.0,0.0,98,0.00,,---,0.00,VWS V14.01,2013-02-03 08:36:00,
2013-02-03 00:41:00,30.9,30.4,30.21,East,90,0.0,0.0,98,0.00,,---,0.00,VWS V14.01,2013-02-03 08:41:00,
2013-02-03 00:46:00,30.9,30.4,30.21,ENE,68,2.0,2.0,98,0.00,,---,0.00,VWS V14.01,2013-02-03 08:46:00,
2013-02-03 00:52:00,30.9,30.4,30.21,East,90,1.1,1.1,98,0.00,,---,0.00,VWS V14.01,2013-02-03 08:52:00,
2013-02-03 00:57:00,30.9,30.4,30.21,ENE,68,2.2,2.2,98,0.00,,---,0.00,VWS V14.01,2013-02-03 08:57:00,
2013-02-03 01:02:00,30.9,30.4,30.21,NNE,22,1.3,1.3,98,0.00,,---,0.00,VWS V14.01,2013-02-03 09:02:00,
2013-02-03 01:07:00,30.6,30.1,30.21,East,90,0.9,0.9,98,0.00,,---,0.00,VWS V14.01,2013-02-03 09:07:00,
2013-02-03 01:12:00,30.6,30.1,30.21,ENE,68,0.0,0.0,98,0.00,,---,0.00,VWS V14.01,2013-02-03 09:12:00,
2013-02-03 01:17:00,30.6,30.1,30.21,NE,45,0.0,0.0,98,0.00,,---,0.00,VWS V14.01,2013-02-03 09:17:00,
2013-02-03 01:22:00,30.4,29.9,30.21,ESE,112,1.3,1.3,98,0.00,,---,0.00,VWS V14.01,2013-02-03 09:22:00,
2013-02-03 01:27:00,30.4,29.9,30.21,NNE,22,1.6,1.6,98,0.00,,---,0.00,VWS V14.01,2013-02-03 09:27:00,
2013-02-03 01:32:00,30.4,29.9,30.21,NE,45,0.0,0.0,98,0.00,,---,0.00,VWS V14.01,2013-02-03 09:32:00,
2013-02-03 01:37:00,30.2,29.7,30.21,NNE,22,0.0,0.0,98,0.00,,---,0.00,VWS V14.01,2013-02-03 09:37:00,
2013-02-03 01:42:00,30.2,29.7,30.21,ENE,68,0.0,0.0,98,0.00,,---,0.00,VWS V14.01,2013-02-03 09:42:00,
2013-02-03 01:47:00,30.2,29.7,30.21,East,90,1.6,1.6,98,0.00,,---,0.00,VWS V14.01,2013-02-03 09:47:00,
2013-02-03 01:52:00,30.2,29.7,30.21,NNE,22,2.5,2.5,98,0.00,,---,0.00,VWS V14.01,2013-02-03 09:52:00,
2013-02-03 01:57:00,30.2,29.7,30.21,NNE,22,1.6,1.6,98,0.00,,---,0.00,VWS V14.01,2013-02-03 09:57:00,
2013-02-03 02:02:00,30.2,29.7,30.21,NE,45,3.1,3.1,98,0.00,,---,0.00,VWS V14.01,2013-02-03 10:02:00,
2013-02-03 02:08:00,30.0,29.5,30.21,NNE,22,1.6,1.6,98,0.00,,---,0.00,VWS V14.01,2013-02-03 10:08:00,
2013-02-03 02:13:00,29.8,29.3,30.21,ENE,68,2.9,2.9,98,0.00,,---,0.00,VWS V14.01,2013-02-03 10:13:00,
2013-02-03 02:18:00,29.8,29.3,30.21,East,90,0.9,0.9,98,0.00,,---,0.00,VWS V14.01,2013-02-03 10:18:00,
2013-02-03 02:23:00,29.7,29.2,30.21,NNE,22,2.0,2.0,98,0.00,,---,0.00,VWS V14.01,2013-02-03 10:23:00,
2013-02-03 02:28:00,29.7,29.2,30.21,ENE,68,2.2,2.2,98,0.00,,---,0.00,VWS V14.01,2013-02-03 10:28:00,
2013-02-03 02:33:00,29.7,29.2,30.21,NE,45,0.0,0.0,98,0.00,,---,0.00,VWS V14.01,2013-02-03 10:33:00,
2013-02-03 02:38:00,29.5,29.0,30.21,NNE,22,0.0,0.0,98,0.00,,---,0.00,VWS V14.01,2013-02-03 10:38:00,
2013-02-03 02:43:00,29.5,29.0,30.21,NNE,22,1.6,1.6,98,0.00,,---,0.00,VWS V14.01,2013-02-03 10:43:00,
2013-02-03 02:48:00,29.5,29.0,30.21,South,180,0.0,0.0,98,0.00,,---,0.00,VWS V14.01,2013-02-03 10:48:00,
2013-02-03 02:53:00,29.5,29.0,30.21,SSE,158,2.2,2.2,98,0.00,,---,0.00,VWS V14.01,2013-02-03 10:53:00,
2013-02-03 02:58:00,29.3,28.8,30.21,SSE,158,1.1,1.1,98,0.00,,---,0.00,VWS V14.01,2013-02-03 10:58:00,
2013-02-03 03:03:00,29.3,28.8,30.21,SE,135,0.0,0.0,98,0.00,,---,0.00,VWS V14.01,2013-02-03 11:03:00,
2013-02-03 03:08:00,29.3,28.8,30.21,East,90,0.0,0.0,98,0.00,,---,0.00,VWS V14.01,2013-02-03 11:08:00,
2013-02-03 03:13:00,29.3,28.8,30.21,SE,135,2.7,2.7,98,0.00,,---,0.00,VWS V14.01,2013-02-03 11:13:00,
2013-02-03 03:19:00,29.3,28.8,30.21,NNE,22,1.1,1.1,98,0.00,,---,0.00,VWS V14.01,2013-02-03 11:19:00,
2013-02-03 03:24:00,29.3,28.8,30.21,NE,45,0.0,0.0,98,0.00,,---,0.00,VWS V14.01,2013-02-03 11:24:00,
2013-02-03 03:29:00,29.3,28.8,30.21,ENE,68,1.6,1.6,98,0.00,,---,0.00,VWS V14.01,2013-02-03 11:29:00,
2013-02-03 03:34:00,29.1,28.6,30.21,East,90,2.0,2.0,98,0.00,,---,0.00,VWS V14.01,2013-02-03 11:34:00,
2013-02-03 03:39:00,29.1,28.6,30.21,East,90,2.0,2.0,98,0.00,,---,0.00,VWS V14.01,2013-02-03 11:39:00,
2013-02-03 03:44:00,29.1,28.6,30.21,ESE,112,3.4,3.4,98,0.00,,---,0.00,VWS V14.01,2013-02-03 11:44:00,
2013-02-03 03:49:00,29.1,28.6,30.18,East,90,2.5,2.5,98,0.00,,---,0.00,VWS V14.01,2013-02-03 11:49:00,
2013-02-03 03:54:00,28.9,28.5,30.18,SE,135,2.5,2.5,98,0.00,,---,0.00,VWS V14.01,2013-02-03 11:54:00,
2013-02-03 03:59:00,28.9,28.5,30.18,NE,45,2.5,2.5,98,0.00,,---,0.00,VWS V14.01,2013-02-03 11:59:00,
2013-02-03 04:04:00,28.9,28.5,30.18,East,90,2.2,2.2,98,0.00,,---,0.00,VWS V14.01,2013-02-03 12:04:00,
2013-02-03 04:09:00,28.9,28.5,30.18,ENE,68,0.0,0.0,98,0.00,,---,0.00,VWS V14.01,2013-02-03 12:09:00,
2013-02-03 04:14:00,28.9,28.5,30.18,East,90,2.2,2.2,98,0.00,,---,0.00,VWS V14.01,2013-02-03 12:14:00,
2013-02-03 04:19:00,28.9,28.5,30.15,ESE,112,2.7,2.7,98,0.00,,---,0.00,VWS V14.01,2013-02-03 12:19:00,
2013-02-03 04:24:00,28.8,28.3,30.15,ENE,68,0.0,0.0,98,0.00,,---,0.00,VWS V14.01,2013-02-03 12:24:00,
2013-02-03 04:29:00,28.8,28.3,30.18,ESE,112,2.5,2.5,98,0.00,,---,0.00,VWS V14.01,2013-02-03 12:29:00,
2013-02-03 04:35:00,28.8,28.3,30.18,ESE,112,2.9,2.9,98,0.00,,---,0.00,VWS V14.01,2013-02-03 12:35:00,
2013-02-03 04:40:00,28.8,28.3,30.18,East,90,1.6,1.6,98,0.00,,---,0.00,VWS V14.01,2013-02-03 12:40:00,
2013-02-03 04:45:00,28.8,28.3,30.18,NNE,22,0.0,0.0,98,0.00,,---,0.00,VWS V14.01,2013-02-03 12:45:00,
2013-02-03 04:50:00,28.8,28.3,30.18,NNE,22,1.1,1.1,98,0.00,,---,0.00,VWS V14.01,2013-02-03 12:50:00,
2013-02-03 04:55:00,28.8,28.3,30.18,East,90,1.6,1.6,98,0.00,,---,0.00,VWS V14.01,2013-02-03 12:55:00,
2013-02-03 05:00:00,28.6,28.1,30.18,East,90,2.0,2.0,98,0.00,,---,0.00,VWS V14.01,2013-02-03 13:00:00,
2013-02-03 05:05:00,28.6,28.1,30.18,East,90,2.5,2.5,98,0.00,,---,0.00,VWS V14.01,2013-02-03 13:05:00,
2013-02-03 05:10:00,28.6,28.1,30.18,East,90,2.7,2.7,98,0.00,,---,0.00,VWS V14.01,2013-02-03 13:10:00,
2013-02-03 05:15:00,28.6,28.1,30.15,NE,45,3.1,3.1,98,0.00,,---,0.00,VWS V14.01,2013-02-03 13:15:00,
2013-02-03 05:20:00,28.6,28.1,30.15,East,90,0.9,0.9,98,0.00,,---,0.00,VWS V14.01,2013-02-03 13:20:00,
2013-02-03 05:25:00,28.6,28.1,30.15,ESE,112,2.5,2.5,98,0.00,,---,0.00,VWS V14.01,2013-02-03 13:25:00,
2013-02-03 05:30:00,28.6,28.1,30.15,East,90,2.0,2.0,98,0.00,,---,0.00,VWS V14.01,2013-02-03 13:30:00,
2013-02-03 05:35:00,28.6,28.1,30.15,NE,45,2.9,2.9,98,0.00,,---,0.00,VWS V14.01,2013-02-03 13:35:00,
2013-02-03 05:40:00,28.6,28.1,30.15,ESE,112,2.0,2.0,98,0.00,,---,0.00,VWS V14.01,2013-02-03 13:40:00,
2013-02-03 05:45:00,28.4,27.9,30.15,North,0,2.2,2.2,98,0.00,,---,0.00,VWS V14.01,2013-02-03 13:45:00,
2013-02-03 05:50:00,28.4,27.9,30.15,East,90,1.3,1.3,98,0.00,,---,0.00,VWS V14.01,2013-02-03 13:50:00,
2013-02-03 05:56:00,28.4,27.9,30.15,NE,45,0.0,0.0,98,0.00,,---,0.00,VWS V14.01,2013-02-03 13:56:00,
2013-02-03 06:01:00,28.4,27.9,30.12,NNE,22,1.1,1.1,98,0.00,,---,0.00,VWS V14.01,2013-02-03 14:01:00,
2013-02-03 06:06:00,28.6,28.1,30.12,NE,45,0.0,0.0,98,0.00,,---,0.00,VWS V14.01,2013-02-03 14:06:00,
2013-02-03 06:11:00,28.6,28.1,30.12,ENE,68,0.0,0.0,98,0.00,,---,0.00,VWS V14.01,2013-02-03 14:11:00,
2013-02-03 06:16:00,28.6,28.1,30.12,NNE,22,2.2,2.2,98,0.00,,---,0.00,VWS V14.01,2013-02-03 14:16:00,
2013-02-03 06:21:00,28.6,28.1,30.12,NE,45,1.3,1.3,98,0.00,,---,0.00,VWS V14.01,2013-02-03 14:21:00,
2013-02-03 06:26:00,28.6,28.1,30.12,North,0,0.0,0.0,98,0.00,,---,0.00,VWS V14.01,2013-02-03 14:26:00,
2013-02-03 06:31:00,28.6,28.1,30.15,NNE,22,1.1,1.1,98,0.00,,---,0.00,VWS V14.01,2013-02-03 14:31:00,
2013-02-03 06:36:00,28.6,28.1,30.15,ESE,112,1.6,1.6,98,0.00,,---,0.00,VWS V14.01,2013-02-03 14:36:00,
2013-02-03 06:41:00,28.6,28.1,30.15,ESE,112,0.0,0.0,98,0.00,,---,0.00,VWS V14.01,2013-02-03 14:41:00,
2013-02-03 06:46:00,28.6,28.1,30.15,ESE,112,1.3,1.3,98,0.00,,---,0.00,VWS V14.01,2013-02-03 14:46:00,
2013-02-03 06:51:00,28.6,28.1,30.15,ESE,112,0.0,0.0,98,0.00,,---,0.00,VWS V14.01,2013-02-03 14:51:00,
2013-02-03 06:56:00,28.8,28.3,30.15,ESE,112,0.0,0.0,98,0.00,,---,0.00,VWS V14.01,2013-02-03 14:56:00,
2013-02-03 07:01:00,28.6,28.1,30.12,ESE,112,2.9,2.9,98,0.00,,---,0.00,VWS V14.01,2013-02-03 15:01:00,
2013-02-03 07:07:00,28.8,28.3,30.12,East,90,1.6,1.6,98,0.00,,---,0.00,VWS V14.01,2013-02-03 15:07:00,
2013-02-03 07:12:00,28.8,28.3,30.12,ESE,112,0.0,0.0,98,0.00,,---,0.00,VWS V14.01,2013-02-03 15:12:00,
2013-02-03 07:17:00,28.8,28.3,30.15,East,90,2.0,2.0,98,0.00,,---,0.00,VWS V14.01,2013-02-03 15:17:00,
2013-02-03 07:22:00,28.8,28.3,30.15,ENE,68,0.0,0.0,98,0.00,,---,0.00,VWS V14.01,2013-02-03 15:22:00,
2013-02-03 07:27:00,28.9,28.5,30.15,ESE,112,1.6,1.6,98,0.00,,---,0.00,VWS V14.01,2013-02-03 15:27:00,
2013-02-03 07:32:00,28.9,28.5,30.15,ENE,68,1.1,1.1,98,0.00,,---,0.00,VWS V14.01,2013-02-03 15:32:00,
2013-02-03 07:37:00,29.1,28.6,30.15,ENE,68,0.0,0.0,98,0.00,,---,0.00,VWS V14.01,2013-02-03 15:37:00,
2013-02-03 07:42:00,29.1,28.6,30.15,ENE,68,2.2,2.2,98,0.00,,---,0.00,VWS V14.01,2013-02-03 15:42:00,
2013-02-03 08:00:00,29.3,28.8,30.15,ENE,68,1.3,1.3,98,0.00,,---,0.00,VWS V14.01,2013-02-03 16:00:00,
2013-02-03 08:05:00,29.3,28.8,30.15,ESE,112,2.5,2.5,98,0.00,,---,0.00,VWS V14.01,2013-02-03 16:05:00,
2013-02-03 08:10:00,29.3,28.8,30.15,ENE,68,2.0,2.0,98,0.00,,---,0.00,VWS V14.01,2013-02-03 16:10:00,
2013-02-03 08:15:00,29.3,28.8,30.15,East,90,0.0,0.0,98,0.00,,---,0.00,VWS V14.01,2013-02-03 16:15:00,
2013-02-03 08:20:00,29.3,28.8,30.15,ESE,112,3.1,3.1,98,0.00,,---,0.00,VWS V14.01,2013-02-03 16:20:00,
2013-02-03 08:26:00,29.5,29.0,30.15,East,90,0.0,0.0,98,0.00,,---,0.00,VWS V14.01,2013-02-03 16:26:00,
2013-02-03 08:31:00,29.5,29.0,30.15,NNE,22,0.0,0.0,98,0.00,,---,0.00,VWS V14.01,2013-02-03 16:31:00,
2013-02-03 08:36:00,29.7,29.2,30.15,ENE,68,0.0,0.0,98,0.00,,---,0.00,VWS V14.01,2013-02-03 16:36:00,
2013-02-03 08:41:00,29.8,29.3,30.15,East,90,2.2,2.2,98,0.00,,---,0.00,VWS V14.01,2013-02-03 16:41:00,
2013-02-03 08:46:00,30.0,29.5,30.15,NNE,22,0.0,0.0,98,0.00,,---,0.00,VWS V14.01,2013-02-03 16:46:00,
2013-02-03 08:51:00,30.2,29.7,30.15,ENE,68,1.3,1.3,98,0.00,,---,0.00,VWS V14.01,2013-02-03 16:51:00,
2013-02-03 08:56:00,30.4,29.9,30.15,ENE,68,1.6,1.6,98,0.00,,---,0.00,VWS V14.01,2013-02-03 16:56:00,
2013-02-03 09:01:00,30.4,29.9,30.15,East,90,2.0,2.0,98,0.00,,---,0.00,VWS V14.01,2013-02-03 17:01:00,
2013-02-03 09:06:00,30.4,29.9,30.15,East,90,2.0,2.0,98,0.00,,---,0.00,VWS V14.01,2013-02-03 17:06:00,
2013-02-03 09:11:00,30.6,30.1,30.15,NNE,22,0.0,0.0,98,0.00,,---,0.00,VWS V14.01,2013-02-03 17:11:00,
2013-02-03 09:16:00,30.7,30.2,30.18,ENE,68,2.7,2.7,98,0.00,,---,0.00,VWS V14.01,2013-02-03 17:16:00,
2013-02-03 09:21:00,30.9,30.4,30.18,ENE,68,0.0,0.0,98,0.00,,---,0.00,VWS V14.01,2013-02-03 17:21:00,
2013-02-03 09:26:00,31.1,30.6,30.18,ENE,68,2.5,2.5,98,0.00,,---,0.00,VWS V14.01,2013-02-03 17:26:00,
2013-02-03 09:31:00,31.1,30.4,30.18,East,90,1.1,1.1,97,0.00,,---,0.00,VWS V14.01,2013-02-03 17:31:00,
2013-02-03 09:36:00,31.3,30.8,30.18,ENE,68,0.0,0.0,98,0.00,,---,0.00,VWS V14.01,2013-02-03 17:36:00,
2013-02-03 09:42:00,31.5,31.0,30.18,ENE,68,1.6,1.6,98,0.00,,---,0.00,VWS V14.01,2013-02-03 17:42:00,
2013-02-03 09:47:00,31.5,30.7,30.18,East,90,2.5,2.5,97,0.00,,---,0.00,VWS V14.01,2013-02-03 17:47:00,
2013-02-03 09:52:00,31.6,30.9,30.18,East,90,1.3,1.3,97,0.00,,---,0.00,VWS V14.01,2013-02-03 17:52:00,
2013-02-03 09:57:00,32.0,31.2,30.18,East,90,2.0,2.0,97,0.00,,---,0.00,VWS V14.01,2013-02-03 17:57:00,
2013-02-03 10:02:00,32.2,31.4,30.15,East,90,1.3,1.3,97,0.00,,---,0.00,VWS V14.01,2013-02-03 18:02:00,
2013-02-03 10:07:00,32.2,31.4,30.15,NNE,22,0.0,0.0,97,0.00,,---,0.00,VWS V14.01,2013-02-03 18:07:00,
2013-02-03 10:12:00,32.2,31.4,30.15,NNE,22,2.5,2.5,97,0.00,,---,0.00,VWS V14.01,2013-02-03 18:12:00,
2013-02-03 10:17:00,32.5,31.8,30.18,East,90,0.0,0.0,97,0.00,,---,0.00,VWS V14.01,2013-02-03 18:17:00,
2013-02-03 10:22:00,32.7,32.0,30.18,NNE,22,3.1,3.1,97,0.00,,---,0.00,VWS V14.01,2013-02-03 18:22:00,
2013-02-03 10:27:00,32.9,32.1,30.18,East,90,2.7,2.7,97,0.00,,---,0.00,VWS V14.01,2013-02-03 18:27:00,
2013-02-03 10:32:00,33.1,32.3,30.18,NE,45,2.7,2.7,97,0.00,,---,0.00,VWS V14.01,2013-02-03 18:32:00,
2013-02-03 10:37:00,33.3,32.5,30.18,NE,45,0.0,0.0,97,0.00,,---,0.00,VWS V14.01,2013-02-03 18:37:00,
2013-02-03 10:43:00,33.3,32.5,30.18,North,0,1.6,1.6,97,0.00,,---,0.00,VWS V14.01,2013-02-03 18:43:00,
2013-02-03 10:48:00,33.4,32.7,30.18,NNE,22,4.0,4.0,97,0.00,,---,0.00,VWS V14.01,2013-02-03 18:48:00,
2013-02-03 10:53:00,33.6,32.6,30.18,NNE,22,0.0,0.0,96,0.00,,---,0.00,VWS V14.01,2013-02-03 18:53:00,
2013-02-03 10:58:00,33.6,32.6,30.18,ESE,112,2.5,2.5,96,0.00,,---,0.00,VWS V14.01,2013-02-03 18:58:00,
2013-02-03 11:03:00,33.8,32.5,30.18,NE,45,0.0,0.0,95,0.00,,---,0.00,VWS V14.01,2013-02-03 19:03:00,
2013-02-03 11:08:00,34.0,32.7,30.18,NNE,22,0.0,0.0,95,0.00,,---,0.00,VWS V14.01,2013-02-03 19:08:00,
2013-02-03 11:13:00,34.2,32.9,30.18,SSE,158,2.0,2.0,95,0.00,,---,0.00,VWS V14.01,2013-02-03 19:13:00,
2013-02-03 11:18:00,34.2,32.6,30.18,ESE,112,1.1,1.1,94,0.00,,---,0.00,VWS V14.01,2013-02-03 19:18:00,
2013-02-03 11:23:00,34.5,32.7,30.18,ESE,112,2.7,2.7,93,0.00,,---,0.00,VWS V14.01,2013-02-03 19:23:00,
2013-02-03 11:28:00,34.9,33.3,30.18,NNE,22,0.0,0.0,94,0.00,,---,0.00,VWS V14.01,2013-02-03 19:28:00,
2013-02-03 11:33:00,35.2,33.7,30.18,East,90,0.0,0.0,94,0.00,,---,0.00,VWS V14.01,2013-02-03 19:33:00,
2013-02-03 11:39:00,35.4,33.9,30.18,East,90,2.2,2.2,94,0.00,,---,0.00,VWS V14.01,2013-02-03 19:39:00,
2013-02-03 11:44:00,35.6,33.8,30.18,East,90,0.0,0.0,93,0.00,,---,0.00,VWS V14.01,2013-02-03 19:44:00,
2013-02-03 11:49:00,35.4,33.6,30.12,East,90,0.9,0.9,93,0.00,,---,0.00,VWS V14.01,2013-02-03 19:49:00,
2013-02-03 11:54:00,35.8,33.7,30.12,NNE,22,0.0,0.0,92,0.00,,---,0.00,VWS V14.01,2013-02-03 19:54:00,
2013-02-03 11:59:00,36.0,34.1,30.12,ENE,68,0.0,0.0,93,0.00,,---,0.00,VWS V14.01,2013-02-03 19:59:00,
2013-02-03 12:04:00,36.1,34.0,30.12,NE,45,0.0,0.0,92,0.00,,---,0.00,VWS V14.01,2013-02-03 20:04:00,
2013-02-03 12:09:00,36.1,34.0,30.12,NW,315,1.1,1.1,92,0.00,,---,0.00,VWS V14.01,2013-02-03 20:09:00,
2013-02-03 12:14:00,36.1,34.0,30.12,ENE,68,1.3,1.3,92,0.00,,---,0.00,VWS V14.01,2013-02-03 20:14:00,
2013-02-03 12:19:00,36.3,34.2,30.15,NW,315,0.0,0.0,92,0.00,,---,0.00,VWS V14.01,2013-02-03 20:19:00,
2013-02-03 12:24:00,36.5,34.1,30.15,ENE,68,0.0,0.0,91,0.00,,---,0.00,VWS V14.01,2013-02-03 20:24:00,
2013-02-03 12:29:00,36.3,34.0,30.15,South,180,2.0,2.0,91,0.00,,---,0.00,VWS V14.01,2013-02-03 20:29:00,
2013-02-03 12:34:00,36.5,33.8,30.12,NE,45,2.2,2.2,90,0.00,,---,0.00,VWS V14.01,2013-02-03 20:34:00,
2013-02-03 12:40:00,36.7,34.0,30.12,East,90,0.0,0.0,90,0.00,,---,0.00,VWS V14.01,2013-02-03 20:40:00,
2013-02-03 12:45:00,36.9,34.2,30.12,NNE,22,0.0,0.0,90,0.00,,---,0.00,VWS V14.01,2013-02-03 20:45:00,
2013-02-03 12:50:00,37.0,34.4,30.12,North,0,0.0,0.0,90,0.00,,---,0.00,VWS V14.01,2013-02-03 20:50:00,
2013-02-03 12:55:00,37.2,34.3,30.12,NE,45,0.0,0.0,89,0.00,,---,0.00,VWS V14.01,2013-02-03 20:55:00,
2013-02-03 13:00:00,37.2,34.3,30.12,East,90,0.0,0.0,89,0.00,,---,0.00,VWS V14.01,2013-02-03 21:00:00,
2013-02-03 13:05:00,37.2,34.0,30.12,South,180,0.0,0.0,88,0.00,,---,0.00,VWS V14.01,2013-02-03 21:05:00,
2013-02-03 13:10:00,37.0,33.8,30.12,ENE,68,0.0,0.0,88,0.00,,---,0.00,VWS V14.01,2013-02-03 21:10:00,
2013-02-03 13:15:00,37.2,34.0,30.09,NNE,22,0.0,0.0,88,0.00,,---,0.00,VWS V14.01,2013-02-03 21:15:00,
2013-02-03 13:20:00,37.2,34.0,30.09,ENE,68,0.0,0.0,88,0.00,,---,0.00,VWS V14.01,2013-02-03 21:20:00,
2013-02-03 13:25:00,37.4,34.2,30.09,ESE,112,1.1,1.1,88,0.00,,---,0.00,VWS V14.01,2013-02-03 21:25:00,
2013-02-03 13:30:00,37.4,34.2,30.09,NNE,22,2.0,2.0,88,0.00,,---,0.00,VWS V14.01,2013-02-03 21:30:00,
2013-02-03 13:35:00,37.4,33.9,30.09,SE,135,2.5,2.5,87,0.00,,---,0.00,VWS V14.01,2013-02-03 21:35:00,
2013-02-03 13:41:00,37.4,33.9,30.09,ESE,112,1.3,1.3,87,0.00,,---,0.00,VWS V14.01,2013-02-03 21:41:00,
2013-02-03 13:46:00,37.6,33.8,30.12,East,90,0.0,0.0,86,0.00,,---,0.00,VWS V14.01,2013-02-03 21:46:00,
2013-02-03 13:51:00,37.6,33.8,30.12,SSE,158,0.0,0.0,86,0.00,,---,0.00,VWS V14.01,2013-02-03 21:51:00,
2013-02-03 13:56:00,37.6,33.8,30.12,SSW,202,0.0,0.0,86,0.00,,---,0.00,VWS V14.01,2013-02-03 21:56:00,
2013-02-03 14:01:00,37.6,34.1,30.12,SSE,158,0.0,0.0,87,0.00,,---,0.00,VWS V14.01,2013-02-03 22:01:00,
2013-02-03 14:06:00,37.8,34.2,30.12,ESE,112,0.0,0.0,87,0.00,,---,0.00,VWS V14.01,2013-02-03 22:06:00,
2013-02-03 14:11:00,37.8,34.2,30.12,SSE,158,0.0,0.0,87,0.00,,---,0.00,VWS V14.01,2013-02-03 22:11:00,
2013-02-03 14:16:00,38.1,34.6,30.12,West,270,0.0,0.0,87,0.00,,---,0.00,VWS V14.01,2013-02-03 22:16:00,
2013-02-03 14:21:00,38.1,34.6,30.12,NNE,22,0.0,0.0,87,0.00,,---,0.00,VWS V14.01,2013-02-03 22:21:00,
2013-02-03 14:26:00,38.5,35.0,30.12,North,0,0.0,0.0,87,0.00,,---,0.00,VWS V14.01,2013-02-03 22:26:00,
2013-02-03 14:32:00,38.7,35.1,30.12,North,0,0.0,0.0,87,0.00,,---,0.00,VWS V14.01,2013-02-03 22:32:00,
2013-02-03 14:37:00,38.7,34.8,30.12,NNE,22,0.0,0.0,86,0.00,,---,0.00,VWS V14.01,2013-02-03 22:37:00,
2013-02-03 14:42:00,38.8,35.0,30.12,WNW,292,0.0,0.0,86,0.00,,---,0.00,VWS V14.01,2013-02-03 22:42:00,
2013-02-03 14:47:00,38.8,34.7,30.12,WNW,292,0.0,0.0,85,0.00,,---,0.00,VWS V14.01,2013-02-03 22:47:00,
2013-02-03 14:52:00,38.8,34.7,30.12,WNW,292,0.0,0.0,85,0.00,,---,0.00,VWS V14.01,2013-02-03 22:52:00,
2013-02-03 14:57:00,38.7,34.5,30.12,WNW,292,2.2,2.2,85,0.00,,---,0.00,VWS V14.01,2013-02-03 22:57:00,
2013-02-03 15:02:00,38.5,34.1,30.12,WNW,292,2.0,2.0,84,0.00,,---,0.00,VWS V14.01,2013-02-03 23:02:00,
2013-02-03 15:07:00,38.5,33.8,30.12,NW,315,1.3,1.3,83,0.00,,---,0.00,VWS V14.01,2013-02-03 23:07:00,
2013-02-03 15:12:00,38.3,33.6,30.12,NNW,338,1.6,1.6,83,0.00,,---,0.00,VWS V14.01,2013-02-03 23:12:00,
2013-02-03 15:17:00,38.3,33.6,30.12,WNW,292,0.0,0.0,83,0.00,,---,0.00,VWS V14.01,2013-02-03 23:17:00,
2013-02-03 15:22:00,38.1,33.4,30.12,WNW,292,2.5,2.5,83,0.00,,---,0.00,VWS V14.01,2013-02-03 23:22:00,
2013-02-03 15:28:00,37.9,33.0,30.12,WNW,292,1.6,1.6,82,0.00,,---,0.00,VWS V14.01,2013-02-03 23:28:00,
2013-02-03 15:33:00,37.6,32.6,30.12,NW,315,2.0,2.0,82,0.00,,---,0.00,VWS V14.01,2013-02-03 23:33:00,
2013-02-03 15:38:00,37.6,32.6,30.12,NW,315,0.0,0.0,82,0.00,,---,0.00,VWS V14.01,2013-02-03 23:38:00,
2013-02-03 15:43:00,37.4,32.7,30.12,NW,315,2.2,2.2,83,0.00,,---,0.00,VWS V14.01,2013-02-03 23:43:00,
2013-02-03 15:48:00,37.2,32.8,30.12,NNW,338,0.0,0.0,84,0.00,,---,0.00,VWS V14.01,2013-02-03 23:48:00,
2013-02-03 15:53:00,37.2,32.8,30.12,NNW,338,0.0,0.0,84,0.00,,---,0.00,VWS V14.01,2013-02-03 23:53:00,
2013-02-03 15:58:00,37.2,33.1,30.12,NW,315,0.0,0.0,85,0.00,,---,0.00,VWS V14.01,2013-02-03 23:58:00,
2013-02-03 16:03:00,37.2,33.1,30.12,WNW,292,0.0,0.0,85,0.00,,---,0.00,VWS V14.01,2013-02-04 00:03:00,
2013-02-03 16:08:00,37.0,33.0,30.12,WNW,292,0.0,0.0,85,0.00,,---,0.00,VWS V14.01,2013-02-04 00:08:00,
2013-02-03 16:13:00,37.0,33.0,30.12,WNW,292,0.0,0.0,85,0.00,,---,0.00,VWS V14.01,2013-02-04 00:13:00,
2013-02-03 16:19:00,37.0,33.0,30.09,WNW,292,0.0,0.0,85,0.00,,---,0.00,VWS V14.01,2013-02-04 00:19:00,
2013-02-03 16:24:00,36.9,32.8,30.09,WSW,248,0.0,0.0,85,0.00,,---,0.00,VWS V14.01,2013-02-04 00:24:00,
2013-02-03 16:29:00,36.7,32.9,30.09,WSW,248,0.0,0.0,86,0.00,,---,0.00,VWS V14.01,2013-02-04 00:29:00,
2013-02-03 16:34:00,36.7,32.9,30.06,West,270,0.0,0.0,86,0.00,,---,0.00,VWS V14.01,2013-02-04 00:34:00,
2013-02-03 16:39:00,36.7,32.9,30.06,West,270,0.0,0.0,86,0.00,,---,0.00,VWS V14.01,2013-02-04 00:39:00,
2013-02-03 16:44:00,36.5,32.7,30.06,West,270,0.0,0.0,86,0.00,,---,0.00,VWS V14.01,2013-02-04 00:44:00,
2013-02-03 16:49:00,36.3,32.5,30.06,West,270,0.0,0.0,86,0.00,,---,0.00,VWS V14.01,2013-02-04 00:49:00,
2013-02-03 16:54:00,36.3,32.5,30.06,NW,315,0.0,0.0,86,0.00,,---,0.00,VWS V14.01,2013-02-04 00:54:00,
2013-02-03 16:59:00,36.3,32.5,30.06,WNW,292,0.0,0.0,86,0.00,,---,0.00,VWS V14.01,2013-02-04 00:59:00,
2013-02-03 17:04:00,36.1,32.7,30.09,WNW,292,0.0,0.0,87,0.00,,---,0.00,VWS V14.01,2013-02-04 01:04:00,
2013-02-03 17:09:00,36.1,32.7,30.09,WNW,292,0.0,0.0,87,0.00,,---,0.00,VWS V14.01,2013-02-04 01:09:00,
2013-02-03 17:15:00,36.1,32.7,30.09,WSW,248,0.0,0.0,87,0.00,,---,0.00,VWS V14.01,2013-02-04 01:15:00,
2013-02-03 17:20:00,36.0,32.5,30.09,SSW,202,0.0,0.0,87,0.00,,---,0.00,VWS V14.01,2013-02-04 01:20:00,
2013-02-03 18:33:00,35.4,32.8,30.09,West,270,0.0,0.0,90,0.00,,---,0.00,VWS V14.01,2013-02-04 02:33:00,
2013-02-03 19:35:00,35.4,32.8,30.09,West,270,0.0,0.0,90,0.00,,---,0.00,VWS V14.01,2013-02-04 03:35:00,
2013-02-03 19:40:00,34.9,32.8,30.09,West,270,0.0,0.0,92,0.00,,---,0.00,VWS V14.01,2013-02-04 03:40:00,
2013-02-03 19:45:00,34.9,32.8,30.06,WNW,292,2.5,2.5,92,0.00,,---,0.00,VWS V14.01,2013-02-04 03:45:00,
2013-02-03 19:50:00,34.9,32.8,30.06,NW,315,1.3,1.3,92,0.00,,---,0.00,VWS V14.01,2013-02-04 03:50:00,
2013-02-03 19:55:00,34.9,32.8,30.06,NW,315,2.9,2.9,92,0.00,,---,0.00,VWS V14.01,2013-02-04 03:55:00,
2013-02-03 20:00:00,34.9,32.8,30.09,WNW,292,1.3,1.3,92,0.00,,---,0.00,VWS V14.01,2013-02-04 04:00:00,
2013-02-03 20:05:00,34.9,32.8,30.09,West,270,2.0,2.0,92,0.00,,---,0.00,VWS V14.01,2013-02-04 04:05:00,
2013-02-03 20:10:00,34.7,32.6,30.09,WNW,292,2.0,2.0,92,0.00,,---,0.00,VWS V14.01,2013-02-04 04:10:00,
2013-02-03 20:15:00,34.7,32.9,30.09,WNW,292,1.3,1.3,93,0.00,,---,0.00,VWS V14.01,2013-02-04 04:15:00,
2013-02-03 20:21:00,34.7,32.9,30.09,WSW,248,1.1,1.1,93,0.00,,---,0.00,VWS V14.01,2013-02-04 04:21:00,
2013-02-03 20:26:00,34.7,32.9,30.09,SW,225,1.3,1.3,93,0.00,,---,0.00,VWS V14.01,2013-02-04 04:26:00,
2013-02-03 20:31:00,34.5,32.7,30.09,WSW,248,0.0,0.0,93,0.00,,---,0.00,VWS V14.01,2013-02-04 04:31:00,
2013-02-03 20:36:00,34.5,32.7,30.09,SW,225,0.0,0.0,93,0.00,,---,0.00,VWS V14.01,2013-02-04 04:36:00,
2013-02-03 20:41:00,34.5,32.7,30.09,South,180,0.0,0.0,93,0.00,,---,0.00,VWS V14.01,2013-02-04 04:41:00,
2013-02-03 20:46:00,34.5,32.7,30.09,South,180,0.0,0.0,93,0.00,,---,0.00,VWS V14.01,2013-02-04 04:46:00,
2013-02-03 20:51:00,34.5,32.7,30.09,SSE,158,0.0,0.0,93,0.00,,---,0.00,VWS V14.01,2013-02-04 04:51:00,
2013-02-03 20:56:00,34.5,32.7,30.09,SSE,158,0.0,0.0,93,0.00,,---,0.00,VWS V14.01,2013-02-04 04:56:00,
2013-02-03 21:01:00,34.5,32.7,30.06,SSE,158,0.0,0.0,93,0.00,,---,0.00,VWS V14.01,2013-02-04 05:01:00,
2013-02-03 21:02:00,34.5,32.7,30.06,SSE,158,0.0,0.0,93,0.00,,---,0.00,VWS V14.01,2013-02-04 05:02:00,
2013-02-03 21:03:00,34.5,32.7,30.06,SSE,158,0.0,0.0,93,0.00,,---,0.00,VWS V14.01,2013-02-04 05:03:00,
2013-02-03 21:08:00,34.5,32.7,30.06,SW,225,0.0,0.0,93,0.00,,---,0.00,VWS V14.01,2013-02-04 05:08:00,
2013-02-03 21:13:00,34.5,32.7,30.06,SW,225,0.0,0.0,93,0.00,,---,0.00,VWS V14.01,2013-02-04 05:13:00,
2013-02-03 21:18:00,34.5,32.7,30.06,South,180,0.0,0.0,93,0.00,,---,0.00,VWS V14.01,2013-02-04 05:18:00,
2013-02-03 21:23:00,34.3,32.8,30.06,SE,135,0.0,0.0,94,0.00,,---,0.00,VWS V14.01,2013-02-04 05:23:00,
2013-02-03 21:28:00,34.3,32.8,30.06,SE,135,0.0,0.0,94,0.00,,---,0.00,VWS V14.01,2013-02-04 05:28:00,
2013-02-03 21:33:00,34.3,32.5,30.06,SE,135,0.0,0.0,93,0.00,,---,0.00,VWS V14.01,2013-02-04 05:33:00,
2013-02-03 21:39:00,34.3,32.5,30.06,SE,135,0.0,0.0,93,0.00,,---,0.00,VWS V14.01,2013-02-04 05:39:00,
2013-02-03 21:44:00,34.2,32.3,30.06,North,0,0.0,0.0,93,0.00,,---,0.00,VWS V14.01,2013-02-04 05:44:00,
2013-02-03 21:49:00,34.2,32.6,30.09,North,0,0.0,0.0,94,0.00,,---,0.00,VWS V14.01,2013-02-04 05:49:00,
2013-02-03 21:54:00,34.2,32.6,30.09,North,0,0.0,0.0,94,0.00,,---,0.00,VWS V14.01,2013-02-04 05:54:00,
2013-02-03 21:59:00,34.2,32.6,30.09,NNW,338,0.0,0.0,94,0.00,,---,0.00,VWS V14.01,2013-02-04 05:59:00,
2013-02-03 22:04:00,34.2,32.6,30.09,NNW,338,0.0,0.0,94,0.00,,---,0.00,VWS V14.01,2013-02-04 06:04:00,
2013-02-03 22:09:00,34.2,32.6,30.09,NNW,338,0.0,0.0,94,0.00,,---,0.00,VWS V14.01,2013-02-04 06:09:00,
2013-02-03 22:14:00,34.0,32.4,30.09,North,0,0.0,0.0,94,0.00,,---,0.00,VWS V14.01,2013-02-04 06:14:00,
2013-02-03 22:19:00,34.0,32.4,30.06,East,90,0.0,0.0,94,0.00,,---,0.00,VWS V14.01,2013-02-04 06:19:00,
2013-02-03 22:24:00,34.0,32.4,30.06,ESE,112,1.6,1.6,94,0.00,,---,0.00,VWS V14.01,2013-02-04 06:24:00,
2013-02-03 22:29:00,34.0,32.4,30.06,NE,45,0.0,0.0,94,0.00,,---,0.00,VWS V14.01,2013-02-04 06:29:00,
2013-02-03 22:35:00,34.0,32.4,30.06,NE,45,0.0,0.0,94,0.00,,---,0.00,VWS V14.01,2013-02-04 06:35:00,
2013-02-03 22:40:00,34.0,32.4,30.06,ENE,68,0.0,0.0,94,0.00,,---,0.00,VWS V14.01,2013-02-04 06:40:00,
2013-02-03 22:45:00,34.2,32.9,30.09,ENE,68,0.0,0.0,95,0.00,,---,0.00,VWS V14.01,2013-02-04 06:45:00,
2013-02-03 22:50:00,34.2,32.9,30.09,SSE,158,0.0,0.0,95,0.00,,---,0.00,VWS V14.01,2013-02-04 06:50:00,
2013-02-03 22:55:00,34.3,33.1,30.09,South,180,0.0,0.0,95,0.00,,---,0.00,VWS V14.01,2013-02-04 06:55:00,
2013-02-03 23:00:00,34.3,33.1,30.09,South,180,2.0,2.0,95,0.00,,---,0.00,VWS V14.01,2013-02-04 07:00:00,
2013-02-03 23:05:00,34.3,33.1,30.09,South,180,0.0,0.0,95,0.00,,---,0.00,VWS V14.01,2013-02-04 07:05:00,
2013-02-03 23:10:00,34.3,33.1,30.09,South,180,2.2,2.2,95,0.00,,---,0.00,VWS V14.01,2013-02-04 07:10:00,
2013-02-03 23:15:00,34.2,32.9,30.09,South,180,1.3,1.3,95,0.00,,---,0.00,VWS V14.01,2013-02-04 07:15:00,
2013-02-03 23:20:00,34.0,32.7,30.09,South,180,0.0,0.0,95,0.00,,---,0.00,VWS V14.01,2013-02-04 07:20:00,
2013-02-03 23:25:00,34.0,32.4,30.09,South,180,0.0,0.0,94,0.00,,---,0.00,VWS V14.01,2013-02-04 07:25:00,
2013-02-03 23:30:00,33.8,32.3,30.09,South,180,0.0,0.0,94,0.00,,---,0.00,VWS V14.01,2013-02-04 07:30:00,
2013-02-03 23:35:00,33.8,32.3,30.09,SE,135,2.2,2.2,94,0.00,,---,0.00,VWS V14.01,2013-02-04 07:35:00,
2013-02-03 23:40:00,33.8,32.3,30.09,SE,135,0.0,0.0,94,0.00,,---,0.00,VWS V14.01,2013-02-04 07:40:00,
2013-02-03 23:46:00,33.8,32.5,30.09,SSE,158,2.0,2.0,95,0.00,,---,0.00,VWS V14.01,2013-02-04 07:46:00,
2013-02-03 23:51:00,33.6,32.3,30.09,ESE,112,0.0,0.0,95,0.00,,---,0.00,VWS V14.01,2013-02-04 07:51:00,
2013-02-03 23:56:00,33.4,32.2,30.09,ESE,112,0.0,0.0,95,0.00,,---,0.00,VWS V14.01,2013-02-04 07:56:00,